Terminal Aerodrome Forecast
Issued by NWS Bismarck, ND

Home | Current Version | Previous Version | Text Only | Print | Product List | Glossary Off
Versions: 1 2 3 4 5 6 7 8 9 10 11 12 13 14 15 16 17 18 19 20

000
FTUS43 KBIS 251025 AAA
TAFBIS
TAF AMD
KBIS 251025Z 2510/2606 25003KT P6SM BKN110
     FM251100 00000KT P6SM VCSH BKN080 BKN110
     FM251900 31010KT P6SM SCT060 BKN100
     FM252200 34013KT P6SM FEW060 SCT100
     FM260100 01008KT P6SM SKC=

USA.gov is the U.S. government's official web portal to all federal, state and local government web resources and services.